Portada
METAR-TAF:

METAR-TAF

Aeroports :

Pago Pago, Illes Perifèriques Menors dels EUA

latitud: 14-20S, longitud: 170-43W, altitud: 3 m

Observació

L'informe es va fer fa 55 minuts, a les 18:50 UTC
Vent 2 kt amb direcció variable
Temperatura 28°C
Humitat 84%
Pressió 1011 hPa
Visibilitat: 19.3 km
Escasses núvols a una alçada de 4000 ft
Núvols disperses a una alçada de 12000 ft

METAR: NSTU 231850Z VRB02KT 12SM FEW040 SCT120 28/25 A2985 RMK SLP108 T02770249

Hora: 08:45 (19:45 UTC)

Pronòstic

L'informe es va fer fa 2 hores i 19 minuts, a les 17:26 UTC
Pronòstic vàlid del 23 a les 18 UTC al 24 a les 18 UTC
Vent 11 kt del Est/Sud-Est
Visibilitat: 10 km
Núvols disperses a una alçada de 2000 ft
Núvols disperses a una alçada de 4000 ft
xàfecs en les proximitats,

TAF: NSTU 231726Z 2318/2418 12011KT P6SM VCSH SCT020 SCT040

Observacions i pronòstics meteorològics de més de 4000 aeroports (METAR i TAF).

Les estacions disponibles són els punts grocs i vermells al mapa.

Posi el ratolí al punt desitjat per veure el nom de l'estació.

Feu clic per veure les observacions i els pronòstics meteorològics.

Per canviar el mapa: feu clic els botons verds amb una creu de color negre per apropar; al botó verd amb un guió per allunyar la imatge; o en les fletxes verdes per a mapes adjacents.


METAR-TAF: